Detall de PIREP

Printer-friendly versionPDF version

[2015/02/15 06:01:00]
Flight IATA:CT2104
Pilot Number:041
Company ICAO:CAT
Aircraft Type:F28/A
PAX:36
Departing Airport: LEVC
Destination Airport: LEBB
Alternate Airport:LEBL
Online: VATSIM
Route:SOPET UN609 GEMAS UM601 PPN G23 CEGAM
Flight Level:FL270
No Slew and time accel
No pause
Crash detect
Detect pilot in Cockpit between each 30 and 45 minutes
06:01 Zero fuel Weight: 57507 Lbs, Fuel Weight: 11421 Lbs
06:01 VATSIM:LEVC 150530Z 27009KT 9999 FEW040 13/06 Q1009 NOSIG
06:01 VATSIM:LEBB 150530Z VRB01KT 8000 RA SCT016 BKN028 09/09 Q1008 TEMPO 3000 BKN014
06:01 VOICE CATALONIAN
06:07 Parking Brakes off
06:16 Take-off
06:16 Take off Weight: 68352 Lbs
06:16 Wind: 270º @ 008 Knots Heading: 294º
06:16 POS N39º 29´ 30´´ W000º 29´ 18´´
06:16 Gear Up: 178 Knots
06:16 Flaps:1 at 178 Knots
06:17 Flaps:0 at 191 Knots
06:31 Wind:302º@036 Knots Heading: 010º Ground Speed: 358 Knots Altitude 22778 ft
06:45 TOC
06:45 Fuel Weight: 7973 Lb
06:46 Wind:302º@040 Knots Heading: 292º Ground Speed: 356 Knots Altitude 26896 ft
06:59 TOD
06:59 Fuel Weight: 7004 Lb
07:01 Wind:287º@041 Knots Heading: 294º Ground Speed: 309 Knots Altitude 23927 ft
07:14 Flaps:1 at 252 Knots
07:15 Flaps:2 at 252 Knots
07:16 Wind:203º@006 Knots Heading: 297º Ground Speed: 231 Knots Altitude 4064 ft
07:16 Flaps:3 at 220 Knots
07:17 Flaps:4 at 215 Knots
07:18 Gear Down: 192 Knots
07:19 Flaps:5 at 184 Knots
07:20 TouchDown:Rate -269 ft/min Speed: 116 Knots
07:21 VATSIM:LEBB 150700Z VRB02KT 8000 -RA SCT015 BKN023 09/09 Q1008 TEMPO 3000 RA
07:21 Land
07:21 Wind:090º@002 Knots
07:21 Heading: 298º
07:21 Flight Duration: 01:05
07:21 Landing Weight: 63587 Lbs
07:21 POS N43º 18´ 05´´ W002º 54´ 44´´
07:25 Parking brakes on
07:25 Block to Block Duration: 01:18
07:25 Final Fuel: 5903 Lbls
07:25 Spent Fuel: 5518 Lbls
07:25 Flight Length: 347 NM
07:25 TOD Land Length: 94 NM

Exportar CSV

Powered by Drupal - Modified by Danger4k